Time;durP1;ratioP1;P1;durP2;ratioP2;P2;SDS_P1;SDS_P2;PMS_P1;PMS_P2;Temp;Humidity;BMP_temperature;BMP_pressure;BME280_temperature;BME280_humidity;BME280_pressure;Samples;Min_cycle;Max_cycle;Signal;HPM_P1;HPM_P2
2023/01/20 00:01:27;;;;;;;;;20.75;12.50;;;;;-144.24;100.00;60536.00;5098042;27;8863;-72
2023/01/20 00:03:54;;;;;;;;;13.00;9.00;;;;;-144.24;100.00;60536.00;5105592;28;8824;-72
2023/01/20 00:06:20;;;;;;;;;14.00;14.00;;;;;-144.24;100.00;60536.00;5104411;27;8845;-71
2023/01/20 00:08:52;;;;;;;;;12.75;11.50;;;;;-144.24;100.00;60536.00;5099498;27;8795;-71
2023/01/20 00:11:18;;;;;;;;;11.00;9.50;;;;;-144.24;100.00;60536.00;5098099;28;8767;-71
2023/01/20 00:13:43;;;;;;;;;15.75;10.00;;;;;-144.24;100.00;60536.00;5098045;28;8843;-72
2023/01/20 00:16:10;;;;;;;;;15.00;12.00;;;;;-144.24;100.00;60536.00;5093267;28;9362;-72
2023/01/20 00:18:36;;;;;;;;;16.25;14.50;;;;;-144.24;100.00;60536.00;5102971;27;9027;-72
2023/01/20 00:21:07;;;;;;;;;10.25;10.00;;;;;-144.24;100.00;60536.00;5109074;27;8828;-71
2023/01/20 00:23:35;;;;;;;;;13.50;10.00;;;;;-144.24;100.00;60536.00;5103096;28;9697;-73
2023/01/20 00:26:05;;;;;;;;;15.25;12.50;;;;;-144.24;100.00;60536.00;5110081;27;8793;-72
2023/01/20 00:28:31;;;;;;;;;14.75;9.00;;;;;-144.24;100.00;60536.00;5101614;28;8787;-72
2023/01/20 00:30:56;;;;;;;;;14.50;10.50;;;;;-144.24;100.00;60536.00;5102863;28;8894;-72
2023/01/20 00:33:21;;;;;;;;;15.25;11.75;;;;;-144.24;100.00;60536.00;5104137;28;22999;-71
2023/01/20 00:35:47;;;;;;;;;12.25;9.75;;;;;-144.24;100.00;60536.00;5106927;28;12046;-71
2023/01/20 00:38:14;;;;;;;;;16.50;13.50;;;;;-144.24;100.00;60536.00;5106051;27;8815;-73
2023/01/20 00:40:39;;;;;;;;;19.00;12.00;;;;;-144.24;100.00;60536.00;5106394;28;8781;-71
2023/01/20 00:43:04;;;;;;;;;35.25;28.50;;;;;-144.24;100.00;60536.00;5106191;28;8835;-73
2023/01/20 00:45:30;;;;;;;;;22.25;16.75;;;;;-144.24;100.00;60536.00;5090360;27;8810;-72
2023/01/20 00:48:18;;;;;;;;;28.50;22.00;;;;;6.02;100.00;101109.84;5104788;27;45757;-69
2023/01/20 00:50:43;;;;;;;;;20.50;15.25;;;;;6.02;100.00;101108.97;5057758;28;55712;-70
2023/01/20 00:53:09;;;;;;;;;20.50;17.00;;;;;5.99;100.00;101106.22;5064457;28;45618;-71
2023/01/20 00:55:34;;;;;;;;;22.75;12.50;;;;;5.95;100.00;101110.47;5071464;27;52025;-70
2023/01/20 00:57:59;;;;;;;;;22.50;19.50;;;;;5.99;100.00;101114.97;5069628;28;49956;-70
2023/01/20 01:00:25;;;;;;;;;27.25;17.50;;;;;5.99;100.00;101117.59;5051545;28;56670;-69
2023/01/20 01:02:50;;;;;;;;;12.25;12.25;;;;;6.00;100.00;101116.75;5048486;28;45483;-70
2023/01/20 01:05:16;;;;;;;;;21.75;16.75;;;;;6.02;100.00;101114.22;5055039;28;46811;-70
2023/01/20 01:07:42;;;;;;;;;23.00;13.25;;;;;6.00;100.00;101119.38;5055171;28;58796;-71
2023/01/20 01:10:08;;;;;;;;;21.25;14.75;;;;;5.99;100.00;101124.56;5051106;28;45720;-71
2023/01/20 01:12:33;;;;;;;;;23.25;16.25;;;;;5.95;100.00;101134.06;5072119;28;45668;-70
2023/01/20 01:14:59;;;;;;;;;19.75;13.50;;;;;5.94;100.00;101131.41;5070187;27;45604;-71
2023/01/20 01:17:24;;;;;;;;;22.00;17.25;;;;;5.95;100.00;101134.06;5072201;28;45599;-71
2023/01/20 01:19:53;;;;;;;;;21.50;16.00;;;;;5.96;100.00;101145.44;5072312;28;45423;-71
2023/01/20 01:22:19;;;;;;;;;15.25;12.75;;;;;5.95;100.00;101148.91;5066659;28;58456;-70
2023/01/20 01:24:44;;;;;;;;;15.25;11.75;;;;;5.97;100.00;101162.97;5066298;28;45370;-70
2023/01/20 01:27:10;;;;;;;;;22.00;17.00;;;;;5.99;100.00;101166.50;5066121;28;55422;-70
2023/01/20 01:29:35;;;;;;;;;25.00;20.00;;;;;5.97;100.00;101157.72;5069198;28;55052;-70
2023/01/20 01:32:01;;;;;;;;;20.75;16.75;;;;;5.99;100.00;101161.28;5069773;28;45997;-71
2023/01/20 01:34:26;;;;;;;;;24.50;17.75;;;;;5.96;100.00;101163.78;5070392;28;53170;-71
2023/01/20 01:36:51;;;;;;;;;26.50;19.75;;;;;5.95;100.00;101162.88;5068838;28;60179;-71
2023/01/20 01:39:17;;;;;;;;;23.00;19.50;;;;;5.93;100.00;101166.31;5053353;28;51761;-70
2023/01/20 01:41:42;;;;;;;;;23.50;17.75;;;;;5.92;100.00;101175.00;5069885;28;45318;-70
2023/01/20 01:44:10;;;;;;;;;19.50;15.25;;;;;5.91;100.00;101175.78;5068679;28;53946;-71
2023/01/20 01:46:36;;;;;;;;;21.00;16.25;;;;;5.86;100.00;101179.97;5045761;28;45451;-70
2023/01/20 01:49:09;;;;;;;;;19.50;15.25;;;;;5.85;100.00;101188.69;5068403;28;45436;-71
2023/01/20 01:51:39;;;;;;;;;27.75;15.50;;;;;5.82;100.00;101191.22;5034654;28;45321;-70
2023/01/20 01:54:11;;;;;;;;;21.50;15.00;;;;;5.81;100.00;101199.91;5053987;28;45566;-70
2023/01/20 01:56:37;;;;;;;;;17.75;14.25;;;;;5.79;100.00;101205.97;5071522;28;45756;-70
2023/01/20 01:59:02;;;;;;;;;18.00;13.25;;;;;5.74;100.00;101199.66;5042695;28;45489;-71
2023/01/20 02:01:28;;;;;;;;;21.00;15.50;;;;;5.75;100.00;101211.97;5041059;28;45503;-71
2023/01/20 02:04:05;;;;;;;;;18.25;16.00;;;;;5.75;100.00;101206.72;5057700;28;45430;-70
2023/01/20 02:06:32;;;;;;;;;20.00;15.25;;;;;5.74;100.00;101210.16;5040737;28;46392;-70
2023/01/20 02:08:59;;;;;;;;;17.00;11.00;;;;;5.69;100.00;101208.19;5058428;28;46014;-71
2023/01/20 02:11:24;;;;;;;;;12.75;11.75;;;;;5.64;100.00;101209.75;5040503;28;45343;-69
2023/01/20 02:13:50;;;;;;;;;13.25;9.50;;;;;5.63;100.00;101224.56;5040076;28;57208;-70
2023/01/20 02:16:38;;;;;;;;;15.75;15.75;;;;;5.64;100.00;101226.34;5057703;28;60701;-69
2023/01/20 02:19:18;;;;;;;;;16.25;9.75;;;;;5.63;100.00;101227.19;5036020;28;45238;-71
2023/01/20 02:22:14;;;;;;;;;19.75;12.50;;;;;5.62;100.00;101230.66;5056844;28;45323;-71
2023/01/20 02:25:10;;;;;;;;;16.00;12.00;;;;;5.62;100.00;101235.00;5058167;28;45546;-71
2023/01/20 02:28:09;;;;;;;;;14.75;11.50;;;;;5.61;100.00;101234.13;5057922;28;46245;-71
2023/01/20 02:30:37;;;;;;;;;14.75;13.00;;;;;5.59;100.00;101242.75;5055710;28;45392;-71
2023/01/20 02:33:24;;;;;;;;;20.50;12.25;;;;;5.55;100.00;101247.00;5058340;28;45391;-71
2023/01/20 02:35:54;;;;;;;;;15.75;9.00;;;;;5.50;100.00;101248.53;5043239;28;45307;-69
2023/01/20 02:38:37;;;;;;;;;9.75;9.00;;;;;5.47;100.00;101251.03;5052560;28;47242;-70
2023/01/20 02:41:16;;;;;;;;;18.50;8.00;;;;;5.46;100.00;101252.75;5056126;28;46898;-71
2023/01/20 02:43:56;;;;;;;;;7.50;4.00;;;;;5.44;100.00;101259.69;5039191;28;45455;-71
2023/01/20 02:46:31;;;;;;;;;11.50;3.75;;;;;5.44;100.00;101256.16;5057573;28;45513;-70
2023/01/20 02:49:08;;;;;;;;;13.25;8.50;;;;;5.44;100.00;101261.41;5039343;28;46292;-70
2023/01/20 02:51:46;;;;;;;;;8.00;6.00;;;;;5.42;100.00;101258.69;5057855;28;45458;-70
2023/01/20 02:54:13;;;;;;;;;11.25;8.75;;;;;5.43;100.00;101244.81;5056979;28;45459;-69
2023/01/20 02:56:39;;;;;;;;;13.25;6.00;;;;;5.44;100.00;101258.78;5038496;28;45281;-71
2023/01/20 02:59:08;;;;;;;;;6.00;6.00;;;;;5.42;100.00;101255.19;5037010;28;54572;-71
2023/01/20 03:02:03;;;;;;;;;9.25;7.50;;;;;5.39;100.00;101260.34;5055443;28;45228;-70
2023/01/20 03:04:37;;;;;;;;;6.75;5.75;;;;;5.33;100.00;101260.09;5058212;28;45382;-70
2023/01/20 03:07:04;;;;;;;;;15.75;5.75;;;;;5.31;100.00;101261.75;5037037;28;45387;-70
2023/01/20 03:09:39;;;;;;;;;15.25;9.50;;;;;5.31;100.00;101267.88;5055555;28;60900;-70
2023/01/20 03:12:17;;;;;;;;;4.25;0.00;;;;;5.29;100.00;101268.66;5044125;28;45307;-71
2023/01/20 03:14:43;;;;;;;;;8.00;8.00;;;;;5.30;100.00;101275.69;5057658;28;45406;-71
2023/01/20 03:17:08;;;;;;;;;11.75;9.00;;;;;5.31;100.00;101277.47;5035720;28;57707;-71
2023/01/20 03:19:34;;;;;;;;;13.00;7.00;;;;;5.30;100.00;101273.94;5053976;28;62264;-71
2023/01/20 03:21:59;;;;;;;;;9.00;6.50;;;;;5.34;100.00;101286.34;5056392;28;45332;-70
2023/01/20 03:24:28;;;;;;;;;17.25;13.25;;;;;5.35;100.00;101292.47;5026258;28;56038;-71
2023/01/20 03:26:54;;;;;;;;;9.75;6.00;;;;;5.33;100.00;101296.75;5040826;28;45264;-70
2023/01/20 03:29:19;;;;;;;;;15.00;7.25;;;;;5.31;100.00;101296.66;5038911;28;46429;-70
2023/01/20 03:31:51;;;;;;;;;12.25;9.00;;;;;5.28;100.00;101290.44;5046476;28;59646;-71
2023/01/20 03:34:19;;;;;;;;;9.50;9.50;;;;;5.23;100.00;101291.16;5042242;28;45324;-71
2023/01/20 03:36:45;;;;;;;;;11.50;5.75;;;;;5.18;100.00;101294.41;5048266;28;45431;-70
2023/01/20 03:39:10;;;;;;;;;8.50;7.00;;;;;5.13;100.00;101301.19;5031608;28;46239;-70
2023/01/20 03:42:05;;;;;;;;;10.75;8.25;;;;;5.07;100.00;101300.94;5038270;28;45459;-70
2023/01/20 03:44:58;;;;;;;;;9.00;5.25;;;;;5.02;100.00;101295.53;5049910;28;45456;-70
2023/01/20 03:48:03;;;;;;;;;10.75;9.00;;;;;4.96;100.00;101295.28;5048159;28;45582;-69
2023/01/20 03:50:37;;;;;;;;;9.00;7.50;;;;;4.94;100.00;101310.88;5051138;28;45374;-70
2023/01/20 03:53:09;;;;;;;;;8.50;6.50;;;;;4.94;100.00;101304.75;5054740;28;45436;-70
2023/01/20 03:55:44;;;;;;;;;15.25;7.50;;;;;4.98;100.00;101309.31;5056159;28;45485;-71
2023/01/20 03:58:13;;;;;;;;;9.50;9.00;;;;;4.99;100.00;101311.09;5035365;28;45693;-71
2023/01/20 04:00:44;;;;;;;;;13.00;9.00;;;;;5.04;100.00;101317.41;5033888;28;46822;-70
2023/01/20 04:03:15;;;;;;;;;24.00;12.25;;;;;5.05;100.00;101326.13;5038441;28;45325;-71
2023/01/20 04:05:42;;;;;;;;;15.00;11.50;;;;;5.04;100.00;101324.38;5038383;28;45565;-71
2023/01/20 04:08:09;;;;;;;;;10.25;8.25;;;;;5.07;100.00;101333.25;5037993;28;45537;-71
2023/01/20 04:10:37;;;;;;;;;15.00;6.25;;;;;5.06;100.00;101327.91;5037514;28;46514;-70
2023/01/20 04:13:03;;;;;;;;;10.25;9.00;;;;;5.02;100.00;101326.94;5036466;28;45474;-70
2023/01/20 04:15:33;;;;;;;;;14.00;6.50;;;;;4.97;100.00;101329.34;5053596;28;45554;-69
2023/01/20 04:18:15;;;;;;;;;12.00;11.50;;;;;4.95;100.00;101338.88;5038432;28;45720;-71
2023/01/20 04:20:42;;;;;;;;;17.50;11.50;;;;;4.99;100.00;101339.88;5051300;28;46442;-71
2023/01/20 04:23:14;;;;;;;;;8.50;7.25;;;;;5.02;100.00;101345.25;5056521;28;45680;-68
2023/01/20 04:25:39;;;;;;;;;15.25;8.25;;;;;5.06;100.00;101341.00;5055054;28;45431;-70
2023/01/20 04:28:05;;;;;;;;;12.75;11.25;;;;;5.08;100.00;101340.25;5055477;28;48354;-69
2023/01/20 04:30:30;;;;;;;;;12.75;9.50;;;;;5.15;100.00;101352.75;5049757;28;63632;-71
2023/01/20 04:32:55;;;;;;;;;9.75;9.75;;;;;5.17;100.00;101353.72;5055036;28;59254;-71
2023/01/20 04:35:21;;;;;;;;;19.00;10.50;;;;;5.14;100.00;101350.97;5053869;28;53346;-70
2023/01/20 04:37:46;;;;;;;;;15.50;11.00;;;;;5.14;100.00;101347.47;5049700;28;45350;-70
2023/01/20 04:40:12;;;;;;;;;13.50;11.25;;;;;5.13;100.00;101359.66;5056056;28;46274;-70
2023/01/20 04:42:37;;;;;;;;;12.75;11.50;;;;;5.10;100.00;101343.81;5055681;28;45451;-70
2023/01/20 04:45:03;;;;;;;;;14.00;10.75;;;;;5.11;100.00;101349.94;5035881;28;45332;-69
2023/01/20 04:47:30;;;;;;;;;15.75;12.00;;;;;5.09;100.00;101362.09;5055766;28;45619;-70
2023/01/20 04:49:55;;;;;;;;;16.50;12.00;;;;;5.09;100.00;101362.09;5055498;28;46559;-70
2023/01/20 04:52:21;;;;;;;;;12.25;9.50;;;;;5.04;100.00;101356.66;5055000;28;45376;-70
2023/01/20 04:54:46;;;;;;;;;16.00;13.00;;;;;5.04;100.00;101363.63;5035604;28;49204;-71
2023/01/20 04:57:11;;;;;;;;;18.50;11.75;;;;;5.01;100.00;101364.41;5055462;28;50286;-71
2023/01/20 04:59:37;;;;;;;;;12.75;9.75;;;;;5.01;100.00;101364.41;5055523;28;57112;-70
2023/01/20 05:02:02;;;;;;;;;15.25;15.00;;;;;4.99;100.00;101369.53;5046526;28;55907;-71
2023/01/20 05:04:27;;;;;;;;;21.50;15.00;;;;;4.99;100.00;101384.34;5054641;28;48863;-71
2023/01/20 05:06:52;;;;;;;;;18.75;13.25;;;;;4.98;100.00;101375.63;5050734;28;54173;-69
2023/01/20 05:09:18;;;;;;;;;18.25;13.50;;;;;4.98;100.00;101391.31;5047008;28;60532;-70
2023/01/20 05:11:43;;;;;;;;;18.50;11.50;;;;;4.97;100.00;101381.69;5054243;28;60775;-71
2023/01/20 05:14:10;;;;;;;;;22.00;13.25;;;;;4.95;100.00;101379.81;5046347;28;45697;-70
2023/01/20 05:16:36;;;;;;;;;15.75;12.00;;;;;4.92;100.00;101398.03;5050898;28;45656;-70
2023/01/20 05:19:01;;;;;;;;;19.50;14.50;;;;;4.90;100.00;101391.81;5037953;28;45907;-70
2023/01/20 05:21:27;;;;;;;;;24.75;15.25;;;;;4.89;100.00;101397.88;5045722;28;57745;-69
2023/01/20 05:23:53;;;;;;;;;19.25;17.00;;;;;4.87;100.00;101387.34;5049279;28;50920;-69
2023/01/20 05:26:19;;;;;;;;;23.25;15.25;;;;;4.87;100.00;101399.53;5055055;28;45598;-69
2023/01/20 05:28:45;;;;;;;;;20.00;16.50;;;;;4.89;100.00;101398.75;5055647;28;45445;-71
2023/01/20 05:31:10;;;;;;;;;21.25;12.00;;;;;4.92;100.00;101398.03;5054817;28;45628;-69
2023/01/20 05:33:38;;;;;;;;;17.00;15.00;;;;;4.95;100.00;101393.81;5056648;28;45535;-70
2023/01/20 05:36:05;;;;;;;;;19.50;17.75;;;;;4.94;100.00;101407.72;5057977;28;45553;-70
2023/01/20 05:38:30;;;;;;;;;22.00;16.00;;;;;4.96;100.00;101403.44;5040292;28;47541;-70
2023/01/20 05:41:00;;;;;;;;;15.25;11.25;;;;;5.00;100.00;101420.16;5058181;28;58828;-70
2023/01/20 05:43:25;;;;;;;;;14.00;12.25;;;;;5.00;100.00;101421.06;5056441;28;45483;-70
2023/01/20 05:45:51;;;;;;;;;22.00;15.00;;;;;5.03;100.00;101412.44;5056397;28;45440;-70
2023/01/20 05:48:16;;;;;;;;;14.75;11.75;;;;;5.05;100.00;101412.50;5048069;28;64746;-70
2023/01/20 05:50:42;;;;;;;;;20.00;13.00;;;;;5.03;100.00;101425.53;5050012;28;45305;-71
2023/01/20 05:53:07;;;;;;;;;17.75;11.50;;;;;5.04;100.00;101429.94;5052008;28;45375;-70
2023/01/20 05:55:32;;;;;;;;;15.75;13.25;;;;;5.03;100.00;101422.91;5049393;28;45699;-70
2023/01/20 05:58:00;;;;;;;;;27.00;19.75;;;;;5.09;100.00;101422.28;5054584;28;57731;-70
2023/01/20 06:00:26;;;;;;;;;21.25;14.75;;;;;5.08;100.00;101425.75;5050118;28;45546;-71
2023/01/20 06:02:51;;;;;;;;;18.50;12.00;;;;;5.06;100.00;101425.69;5048016;28;55209;-70
2023/01/20 06:05:16;;;;;;;;;21.00;11.50;;;;;5.06;100.00;101428.31;5042292;28;48714;-71
2023/01/20 06:07:42;;;;;;;;;26.00;16.00;;;;;5.04;100.00;101432.56;5048265;28;46120;-72
2023/01/20 06:10:08;;;;;;;;;19.00;13.50;;;;;4.99;100.00;101428.84;5044007;28;45609;-69
2023/01/20 06:12:33;;;;;;;;;21.75;15.00;;;;;5.02;100.00;101441.19;5053341;28;45526;-70
2023/01/20 06:14:58;;;;;;;;;17.00;11.75;;;;;4.97;100.00;101427.91;5051306;28;49021;-71
2023/01/20 06:17:24;;;;;;;;;17.50;11.25;;;;;4.94;100.00;101427.75;5051912;28;63958;-68
2023/01/20 06:19:49;;;;;;;;;23.25;12.75;;;;;4.88;100.00;101422.25;5056884;28;45427;-69
2023/01/20 06:22:15;;;;;;;;;16.50;15.00;;;;;4.86;100.00;101432.66;5038411;28;45629;-70
2023/01/20 06:24:40;;;;;;;;;18.25;13.25;;;;;4.81;100.00;101433.28;5054816;28;45584;-68
2023/01/20 06:27:05;;;;;;;;;17.25;16.75;;;;;4.81;100.00;101431.56;5042063;28;62664;-68
2023/01/20 06:29:31;;;;;;;;;15.00;14.00;;;;;4.81;100.00;101428.06;5048734;28;56118;-68
2023/01/20 06:31:56;;;;;;;;;16.75;14.50;;;;;4.82;100.00;101429.84;5042129;28;53991;-69
2023/01/20 06:34:21;;;;;;;;;19.25;16.00;;;;;4.84;100.00;101426.44;5055443;28;45653;-70
2023/01/20 06:36:47;;;;;;;;;20.50;11.50;;;;;4.86;100.00;101437.91;5050880;28;53644;-73
2023/01/20 06:39:12;;;;;;;;;17.25;12.00;;;;;4.87;100.00;101429.22;5051126;28;45513;-72
2023/01/20 06:41:38;;;;;;;;;10.75;10.75;;;;;4.90;100.00;101431.06;5048769;28;46065;-69
2023/01/20 06:44:03;;;;;;;;;15.25;11.00;;;;;4.90;100.00;101426.75;5042514;28;46391;-71
2023/01/20 06:46:28;;;;;;;;;15.50;11.25;;;;;4.90;100.00;101439.81;5043328;28;45930;-71
2023/01/20 06:48:59;;;;;;;;;13.50;13.00;;;;;4.90;100.00;101445.06;5051023;28;45442;-72
2023/01/20 06:51:25;;;;;;;;;16.00;14.75;;;;;4.94;100.00;101451.31;5051008;28;45623;-70
2023/01/20 06:53:50;;;;;;;;;15.50;11.75;;;;;4.95;100.00;101450.47;5031182;28;45642;-73
2023/01/20 06:56:16;;;;;;;;;11.00;9.00;;;;;4.96;100.00;101449.66;5048118;28;65165;-74
2023/01/20 06:58:41;;;;;;;;;15.25;11.50;;;;;4.99;100.00;101445.44;5044614;28;45585;-72
2023/01/20 07:01:10;;;;;;;;;12.75;10.50;;;;;5.00;100.00;101451.56;5053362;28;46440;-71
2023/01/20 07:03:36;;;;;;;;;26.25;17.00;;;;;5.00;100.00;101455.06;5049792;28;45715;-72
2023/01/20 07:06:13;;;;;;;;;19.75;15.00;;;;;5.03;100.00;101467.41;5046325;28;46422;-71
2023/01/20 07:08:39;;;;;;;;;17.50;12.00;;;;;5.02;100.00;101456.88;5037578;28;45475;-71
2023/01/20 07:11:04;;;;;;;;;18.75;12.00;;;;;4.98;100.00;101464.59;5055769;28;54599;-73
2023/01/20 07:13:29;;;;;;;;;15.75;13.25;;;;;4.99;100.00;101470.72;5055452;28;57037;-71
2023/01/20 07:15:55;;;;;;;;;13.00;11.75;;;;;4.98;100.00;101474.16;5054700;28;62544;-72
2023/01/20 07:18:20;;;;;;;;;14.50;10.50;;;;;5.02;100.00;101486.56;5049392;28;45526;-70
2023/01/20 07:20:46;;;;;;;;;16.75;14.00;;;;;4.99;100.00;101479.47;5048903;28;54584;-72
2023/01/20 07:23:11;;;;;;;;;16.25;12.50;;;;;5.04;100.00;101484.91;5052462;28;45596;-72
2023/01/20 07:25:38;;;;;;;;;16.75;15.75;;;;;5.06;100.00;101498.03;5048739;28;56518;-72
2023/01/20 07:28:04;;;;;;;;;23.50;14.25;;;;;5.07;100.00;101492.91;5052219;28;45431;-73
2023/01/20 07:30:29;;;;;;;;;9.75;7.00;;;;;5.10;100.00;101502.59;5051828;28;45552;-71
2023/01/20 07:32:54;;;;;;;;;16.25;11.25;;;;;5.10;100.00;101500.88;5052809;28;46414;-70
2023/01/20 07:35:20;;;;;;;;;12.00;10.25;;;;;5.14;100.00;101501.91;5045137;28;45541;-70
2023/01/20 07:37:45;;;;;;;;;19.00;14.50;;;;;5.15;100.00;101494.09;5047988;28;55158;-73
2023/01/20 07:40:11;;;;;;;;;15.25;15.00;;;;;5.18;100.00;101493.38;5048549;28;54698;-71
2023/01/20 07:42:37;;;;;;;;;19.25;13.50;;;;;5.18;100.00;101495.97;5041992;28;45530;-70
2023/01/20 07:45:03;;;;;;;;;21.50;15.50;;;;;5.22;100.00;101506.66;5047426;28;45843;-71
2023/01/20 07:47:28;;;;;;;;;18.00;12.00;;;;;5.23;100.00;101510.16;5017330;28;45559;-72
2023/01/20 07:49:54;;;;;;;;;15.25;12.00;;;;;5.23;100.00;101521.53;5050521;28;55160;-73
2023/01/20 07:52:19;;;;;;;;;7.75;4.75;;;;;5.21;100.00;101512.69;5048426;28;51309;-71
2023/01/20 07:54:44;;;;;;;;;17.25;17.25;;;;;5.25;100.00;101521.59;5051876;28;45601;-72
2023/01/20 07:57:10;;;;;;;;;19.50;16.00;;;;;5.25;100.00;101517.25;5041345;28;57836;-74
2023/01/20 07:59:35;;;;;;;;;19.50;15.50;;;;;5.24;100.00;101518.06;5046879;28;54658;-71
2023/01/20 08:02:00;;;;;;;;;17.00;11.50;;;;;5.25;100.00;101519.88;5049011;28;52292;-73
2023/01/20 08:04:25;;;;;;;;;21.75;13.00;;;;;5.25;100.00;101527.72;5049761;28;61202;-71
2023/01/20 08:06:51;;;;;;;;;16.00;12.50;;;;;5.25;100.00;101518.97;5053239;28;59140;-71
2023/01/20 08:09:16;;;;;;;;;19.00;13.75;;;;;5.22;100.00;101511.91;5052512;28;45521;-73
2023/01/20 08:11:42;;;;;;;;;25.50;16.25;;;;;5.27;100.00;101533.00;5046532;28;45654;-71
2023/01/20 08:14:07;;;;;;;;;27.25;21.25;;;;;5.28;100.00;101536.56;5047615;28;46485;-73
2023/01/20 08:16:32;;;;;;;;;16.25;12.75;;;;;5.30;100.00;101532.25;5048697;28;57692;-72
2023/01/20 08:18:58;;;;;;;;;16.75;13.00;;;;;5.26;100.00;101526.88;5053281;28;45651;-72
2023/01/20 08:21:26;;;;;;;;;23.00;16.25;;;;;5.31;100.00;101534.94;5051048;28;45428;-76
2023/01/20 08:23:51;;;;;;;;;19.50;17.00;;;;;5.34;100.00;101544.66;5053368;28;45605;-73
2023/01/20 08:26:18;;;;;;;;;15.00;9.50;;;;;5.35;100.00;101542.09;5034305;28;45555;-73
2023/01/20 08:28:43;;;;;;;;;13.00;12.00;;;;;5.36;100.00;101549.13;5049335;28;45551;-73
2023/01/20 08:31:11;;;;;;;;;12.75;11.75;;;;;5.36;100.00;101554.38;5051988;28;46050;-73
2023/01/20 08:33:37;;;;;;;;;12.50;9.00;;;;;5.37;100.00;101553.53;5049815;28;46601;-72
2023/01/20 08:36:04;;;;;;;;;11.50;10.00;;;;;5.38;100.00;101546.56;5053843;28;45490;-72
2023/01/20 08:38:29;;;;;;;;;14.75;12.00;;;;;5.39;100.00;101541.41;5030293;28;45528;-75
2023/01/20 08:40:55;;;;;;;;;13.75;10.25;;;;;5.39;100.00;101543.16;5050986;28;48516;-73
2023/01/20 08:43:20;;;;;;;;;23.25;15.25;;;;;5.38;100.00;101538.72;5049778;28;46426;-76
2023/01/20 08:45:46;;;;;;;;;16.75;10.75;;;;;5.36;100.00;101540.38;5046473;28;54106;-71
2023/01/20 08:48:12;;;;;;;;;12.50;11.50;;;;;5.36;100.00;101545.63;5046778;28;45265;-71
2023/01/20 08:50:37;;;;;;;;;12.75;12.50;;;;;5.37;100.00;101542.16;5051633;28;45501;-72
2023/01/20 08:53:02;;;;;;;;;19.50;11.75;;;;;5.37;100.00;101540.44;5057477;28;45557;-73
2023/01/20 08:55:29;;;;;;;;;18.50;13.00;;;;;5.39;100.00;101561.47;5053882;28;59144;-72
2023/01/20 08:57:54;;;;;;;;;13.75;11.50;;;;;5.39;100.00;101567.59;5054362;28;45490;-72
2023/01/20 09:00:20;;;;;;;;;18.75;11.50;;;;;5.37;100.00;101557.88;5051621;28;53886;-72
2023/01/20 09:02:45;;;;;;;;;15.25;11.75;;;;;5.36;100.00;101571.81;5054657;28;47472;-72
2023/01/20 09:05:11;;;;;;;;;11.75;9.00;;;;;5.33;100.00;101576.94;5052235;28;54655;-71
2023/01/20 09:07:36;;;;;;;;;15.75;12.50;;;;;5.31;100.00;101573.31;5052228;28;45307;-75
2023/01/20 09:10:03;;;;;;;;;9.00;8.75;;;;;5.30;100.00;101582.00;5053820;28;47042;-74
2023/01/20 09:12:28;;;;;;;;;12.75;9.00;;;;;5.31;100.00;101578.56;5055753;28;45901;-73
2023/01/20 09:14:54;;;;;;;;;10.25;9.50;;;;;5.28;100.00;101579.34;5054714;28;45534;-73
2023/01/20 09:17:19;;;;;;;;;9.75;9.75;;;;;5.28;100.00;101581.97;5055322;28;54776;-74
2023/01/20 09:19:44;;;;;;;;;10.50;6.00;;;;;5.29;100.00;101582.84;5051852;28;45420;-72
2023/01/20 09:22:10;;;;;;;;;10.50;8.50;;;;;5.33;100.00;101574.31;5052391;28;46343;-72
2023/01/20 09:24:35;;;;;;;;;9.00;9.00;;;;;5.37;100.00;101581.44;5049041;28;45341;-72
2023/01/20 09:27:00;;;;;;;;;11.00;10.00;;;;;5.44;100.00;101584.41;5048004;28;45477;-71
2023/01/20 09:29:26;;;;;;;;;12.25;9.00;;;;;5.49;100.00;101587.25;5054740;28;53286;-71
2023/01/20 09:32:02;;;;;;;;;13.00;9.25;;;;;5.52;100.00;101582.13;5050279;28;45683;-71
2023/01/20 09:34:28;;;;;;;;;9.50;7.00;;;;;5.53;100.00;101591.75;5054840;28;45552;-71
2023/01/20 09:43:52;;;;;;;;;8.25;7.50;;;;;5.52;100.00;101603.06;5054240;28;45543;-72
2023/01/20 09:46:18;;;;;;;;;10.50;8.50;;;;;5.64;100.00;101608.84;5034270;28;45721;-72
2023/01/20 09:55:20;;;;;;;;;8.00;6.00;;;;;5.97;100.00;101603.31;5048716;28;45462;-71
2023/01/20 09:57:50;;;;;;;;;8.00;6.75;;;;;6.02;100.00;101610.53;5037376;28;45462;-71
2023/01/20 10:00:21;;;;;;;;;5.25;4.00;;;;;6.08;100.00;101598.50;5044137;28;45571;-71
2023/01/20 10:02:50;;;;;;;;;12.25;7.50;;;;;6.12;100.00;101593.44;5118827;22;46795;-71
2023/01/20 10:05:19;;;;;;;;;12.50;8.00;;;;;6.19;100.00;101610.31;5013431;28;47047;-73
2023/01/20 10:07:55;;;;;;;;;9.00;7.50;;;;;6.26;100.00;101600.13;5013764;28;46635;-72
2023/01/20 10:10:42;;;;;;;;;9.00;7.00;;;;;6.36;100.00;101606.66;5013569;28;45456;-71
2023/01/20 10:13:19;;;;;;;;;8.00;8.00;;;;;6.40;100.00;101608.56;5013118;28;45457;-75
2023/01/20 10:15:52;;;;;;;;;6.50;6.50;;;;;6.44;100.00;101614.81;5015138;28;45821;-71
2023/01/20 10:18:40;;;;;;;;;9.50;8.00;;;;;6.51;100.00;101622.13;5014187;28;45540;-74
2023/01/20 10:21:14;;;;;;;;;4.75;4.75;;;;;6.51;100.00;101622.13;5003432;28;45527;-71
2023/01/20 10:23:49;;;;;;;;;5.00;5.00;;;;;6.46;100.00;101608.81;5016407;28;45475;-71
2023/01/20 10:26:24;;;;;;;;;9.25;5.00;;;;;6.48;100.00;101624.63;5015319;28;46484;-71
2023/01/20 10:28:59;;;;;;;;;6.00;5.00;;;;;6.49;100.00;101623.78;5008948;28;45533;-73
2023/01/20 10:31:28;;;;;;;;;2.25;2.25;;;;;6.51;100.00;101632.63;5015730;28;45409;-75
2023/01/20 10:33:57;;;;;;;;;9.00;5.00;;;;;6.55;100.00;101613.50;5017213;28;47313;-73
2023/01/20 10:36:30;;;;;;;;;5.00;5.00;;;;;6.60;100.00;101624.19;5016202;28;46501;-73
2023/01/20 10:38:55;;;;;;;;;5.75;3.50;;;;;6.62;100.00;101625.19;5008985;28;45717;-75
2023/01/20 10:41:30;;;;;;;;;7.00;4.50;;;;;6.63;100.00;101619.97;5016619;28;45380;-76
2023/01/20 10:43:57;;;;;;;;;6.25;5.00;;;;;6.64;100.00;101608.66;5016048;28;45205;-74
2023/01/20 10:46:53;;;;;;;;;6.00;4.75;;;;;6.77;100.00;101620.53;5015778;28;46560;-74
2023/01/20 10:49:39;;;;;;;;;4.25;2.75;;;;;6.85;100.00;101613.84;5011637;28;45748;-75
2023/01/20 10:52:23;;;;;;;;;4.00;3.00;;;;;6.90;100.00;101629.78;5015509;28;45609;-74
2023/01/20 10:55:10;;;;;;;;;3.50;3.50;;;;;6.93;100.00;101619.41;5015161;28;45367;-74
2023/01/20 10:57:37;;;;;;;;;4.00;3.50;;;;;6.94;100.00;101613.31;5014619;28;46794;-73
2023/01/20 11:00:06;;;;;;;;;4.75;2.50;;;;;6.96;100.00;101614.25;5012430;28;45518;-76
2023/01/20 11:02:34;;;;;;;;;6.00;5.00;;;;;6.96;100.00;101619.50;5012801;28;45663;-73
2023/01/20 11:05:18;;;;;;;;;10.50;9.25;;;;;6.98;100.00;101621.38;5015929;28;45273;-73
2023/01/20 11:07:46;;;;;;;;;11.00;10.00;;;;;6.92;100.00;101617.59;5011901;28;47281;-74
2023/01/20 11:10:20;;;;;;;;;7.25;6.00;;;;;6.82;100.00;101624.25;5015734;28;45526;-76
2023/01/20 11:12:50;;;;;;;;;7.00;6.00;;;;;6.70;100.00;101623.72;5014788;28;45518;-73
2023/01/20 11:15:19;;;;;;;;;9.25;9.00;;;;;6.58;100.00;101616.28;5014034;28;45149;-77
2023/01/20 11:17:45;;;;;;;;;5.25;5.00;;;;;6.53;100.00;101617.81;5008692;28;46267;-75
2023/01/20 11:20:18;;;;;;;;;7.00;6.00;;;;;6.50;100.00;101616.00;5012145;28;45739;-74
2023/01/20 11:22:49;;;;;;;;;7.25;6.00;;;;;6.48;100.00;101612.38;5014865;28;45300;-75
2023/01/20 11:25:25;;;;;;;;;7.50;7.50;;;;;6.49;100.00;101613.28;4996788;28;45538;-74
2023/01/20 11:27:51;;;;;;;;;6.50;5.75;;;;;6.55;100.00;101610.91;5015974;28;46089;-75
2023/01/20 11:30:24;;;;;;;;;6.75;2.25;;;;;6.67;100.00;101607.88;5009506;28;45502;-75
2023/01/20 11:33:17;;;;;;;;;9.75;6.50;;;;;6.83;100.00;101616.41;5015197;28;45540;-76
2023/01/20 11:36:18;;;;;;;;;9.00;5.00;;;;;7.02;100.00;101612.75;5011567;28;45521;-73